createdAt,value
2022-11-05T00:00:33.448Z,20.79
2022-11-05T00:01:54.826Z,19.19
2022-11-05T00:03:16.180Z,22.87
2022-11-05T00:04:37.494Z,22.17
2022-11-05T00:06:01.046Z,18.32
2022-11-05T00:07:31.744Z,20.94
2022-11-05T00:08:52.754Z,19.40
2022-11-05T00:10:22.801Z,20.49
2022-11-05T00:11:43.727Z,22.46
2022-11-05T00:13:06.917Z,24.85
2022-11-05T00:15:49.042Z,18.21
2022-11-05T00:17:10.503Z,19.71
2022-11-05T00:18:32.034Z,18.09
2022-11-05T00:19:53.389Z,20.02
2022-11-05T00:21:14.476Z,18.84
2022-11-05T00:22:35.924Z,18.79
2022-11-05T00:23:56.940Z,19.51
2022-11-05T00:25:18.208Z,21.27
2022-11-05T00:26:39.813Z,21.83
2022-11-05T00:28:01.478Z,17.64
2022-11-05T00:29:22.494Z,22.06
2022-11-05T00:30:43.773Z,18.81
2022-11-05T00:32:04.985Z,21.90
2022-11-05T00:33:26.526Z,22.64
2022-11-05T00:34:47.468Z,26.09
2022-11-05T00:36:09.260Z,18.52
2022-11-05T00:37:30.634Z,21.66
2022-11-05T00:38:52.248Z,18.31
2022-11-05T00:40:13.735Z,26.76
2022-11-05T00:41:34.669Z,20.05
2022-11-05T00:42:56.179Z,20.96
2022-11-05T00:44:17.427Z,21.88
2022-11-05T00:45:39.020Z,21.44
2022-11-05T00:47:00.498Z,19.33
2022-11-05T00:48:21.778Z,20.38
2022-11-05T00:49:43.220Z,19.48
2022-11-05T00:51:05.052Z,19.41
2022-11-05T00:52:26.076Z,19.94
2022-11-05T00:53:47.088Z,23.51
2022-11-05T00:55:08.549Z,22.34
2022-11-05T00:56:30.047Z,20.37
2022-11-05T00:57:51.448Z,22.12
2022-11-05T00:59:12.787Z,25.25
2022-11-05T01:00:41.848Z,21.82
2022-11-05T01:02:03.217Z,18.12
2022-11-05T01:03:26.517Z,17.16
2022-11-05T01:06:13.343Z,25.67
2022-11-05T01:07:34.275Z,18.38
2022-11-05T01:08:55.668Z,20.49
2022-11-05T01:10:17.243Z,19.44
2022-11-05T01:11:38.227Z,24.16
2022-11-05T01:12:59.781Z,22.02
2022-11-05T01:14:21.233Z,16.52
2022-11-05T01:15:42.121Z,23.51
2022-11-05T01:17:03.531Z,22.51
2022-11-05T01:18:24.882Z,19.09
2022-11-05T01:19:46.417Z,18.78
2022-11-05T01:21:11.866Z,19.52
2022-11-05T01:22:32.866Z,18.01
2022-11-05T01:23:53.919Z,19.14
2022-11-05T01:25:15.273Z,18.42
2022-11-05T01:26:36.339Z,19.95
2022-11-05T01:27:57.725Z,19.15
2022-11-05T01:29:18.823Z,15.69
2022-11-05T01:30:40.113Z,20.99
2022-11-05T01:32:01.384Z,19.45
2022-11-05T01:33:23.214Z,20.47
2022-11-05T01:34:44.179Z,19.72
2022-11-05T01:36:06.107Z,21.17
2022-11-05T01:37:27.761Z,19.33
2022-11-05T01:38:49.009Z,17.64
2022-11-05T01:40:12.054Z,18.33
2022-11-05T01:41:33.136Z,18.12
2022-11-05T01:42:54.041Z,20.22
2022-11-05T01:44:52.610Z,20.29
2022-11-05T01:46:14.211Z,18.59
2022-11-05T01:48:00.200Z,18.76
2022-11-05T01:49:27.564Z,19.58
2022-11-05T01:50:59.893Z,19.16
2022-11-05T01:52:21.156Z,18.90
2022-11-05T01:55:05.233Z,17.44
2022-11-05T01:56:33.438Z,17.24
2022-11-05T01:57:54.905Z,17.36
2022-11-05T01:59:19.808Z,18.12
2022-11-05T02:00:41.041Z,18.32
2022-11-05T02:02:02.601Z,16.96
2022-11-05T02:03:24.038Z,19.88
2022-11-05T02:04:47.764Z,15.99
2022-11-05T02:06:09.603Z,18.79
2022-11-05T02:07:30.731Z,21.56
2022-11-05T02:09:04.040Z,19.76
2022-11-05T02:10:25.218Z,22.89
2022-11-05T02:11:46.868Z,18.22
2022-11-05T02:13:08.516Z,27.22
2022-11-05T02:14:30.092Z,19.41
2022-11-05T02:16:03.953Z,20.17
2022-11-05T02:19:27.915Z,20.03
2022-11-05T02:22:23.314Z,24.29
2022-11-05T02:25:10.613Z,28.74
2022-11-05T02:26:51.276Z,22.00
2022-11-05T02:29:33.292Z,24.39
2022-11-05T02:31:07.596Z,24.17
2022-11-05T02:32:48.840Z,20.35
2022-11-05T02:35:53.089Z,18.63
2022-11-05T02:38:48.935Z,20.70
2022-11-05T02:40:25.318Z,23.03
2022-11-05T02:42:09.595Z,19.44
2022-11-05T02:43:41.200Z,19.51
2022-11-05T02:45:28.858Z,21.30
2022-11-05T02:47:08.325Z,25.22
2022-11-05T02:48:45.652Z,19.73
2022-11-05T02:51:41.991Z,16.72
2022-11-05T02:53:21.965Z,20.18
2022-11-05T02:56:10.551Z,29.28
2022-11-05T02:57:36.944Z,19.02
2022-11-05T02:58:58.268Z,21.46
2022-11-05T03:00:41.697Z,17.57
2022-11-05T03:02:03.264Z,16.64
2022-11-05T03:03:34.374Z,19.81
2022-11-05T03:04:55.994Z,21.51
2022-11-05T03:06:46.847Z,18.04
2022-11-05T03:08:11.800Z,22.43
2022-11-05T03:09:45.782Z,19.64
2022-11-05T03:12:45.013Z,20.82
2022-11-05T03:14:15.795Z,19.43
2022-11-05T03:15:49.877Z,15.99
2022-11-05T03:17:45.334Z,17.59
2022-11-05T03:19:19.019Z,17.77
2022-11-05T03:20:49.618Z,17.23
2022-11-05T03:22:13.132Z,21.27
2022-11-05T03:25:12.314Z,15.64
2022-11-05T03:27:58.131Z,19.41
2022-11-05T03:29:24.864Z,21.56
2022-11-05T03:30:46.061Z,17.92
2022-11-05T03:32:07.378Z,18.75
2022-11-05T03:33:30.276Z,18.98
2022-11-05T03:34:55.065Z,23.79
2022-11-05T03:37:35.526Z,18.36
2022-11-05T03:38:56.895Z,20.64
2022-11-05T03:40:19.279Z,21.43
2022-11-05T03:41:41.172Z,23.18
2022-11-05T03:43:04.856Z,18.99
2022-11-05T03:44:29.281Z,19.84
2022-11-05T03:45:54.424Z,22.55
2022-11-05T03:47:19.052Z,26.43
2022-11-05T03:48:43.876Z,20.04
2022-11-05T03:51:40.295Z,24.05
2022-11-05T03:53:04.179Z,21.82
2022-11-05T03:54:25.626Z,21.48
2022-11-05T03:56:02.442Z,19.73
2022-11-05T03:58:35.780Z,21.83
2022-11-05T03:59:57.534Z,24.26
2022-11-05T04:01:19.080Z,24.69
2022-11-05T04:02:40.897Z,23.16
2022-11-05T04:04:03.378Z,25.57
2022-11-05T04:05:24.671Z,22.63
2022-11-05T04:06:45.629Z,20.82
2022-11-05T04:08:10.037Z,19.67
2022-11-05T04:09:29.471Z,19.24
2022-11-05T04:10:50.465Z,24.31
2022-11-05T04:12:11.746Z,16.58
2022-11-05T04:13:33.273Z,24.76
2022-11-05T04:14:54.462Z,18.61
2022-11-05T04:16:15.566Z,21.11
2022-11-05T04:17:36.564Z,23.85
2022-11-05T04:18:57.544Z,21.09
2022-11-05T04:20:19.171Z,18.78
2022-11-05T04:21:40.449Z,18.59
2022-11-05T04:23:03.723Z,16.71
2022-11-05T04:25:45.822Z,18.52
2022-11-05T04:27:07.293Z,14.14
2022-11-05T04:28:28.246Z,19.46
2022-11-05T04:29:56.249Z,14.72
2022-11-05T04:31:17.529Z,15.80
2022-11-05T04:33:04.026Z,18.48
2022-11-05T04:34:25.026Z,13.97
2022-11-05T04:35:54.295Z,15.33
2022-11-05T04:37:15.222Z,18.21
2022-11-05T04:38:36.188Z,17.35
2022-11-05T04:39:57.716Z,14.82
2022-11-05T04:41:25.690Z,14.15
2022-11-05T04:42:46.682Z,16.87
2022-11-05T04:44:08.190Z,16.03
2022-11-05T04:45:31.970Z,15.22
2022-11-05T04:46:59.804Z,17.20
2022-11-05T04:48:27.059Z,16.60
2022-11-05T04:49:48.443Z,16.87
2022-11-05T04:51:09.478Z,17.98
2022-11-05T04:52:37.638Z,17.19
2022-11-05T04:53:59.063Z,21.52
2022-11-05T04:55:20.560Z,23.29
2022-11-05T04:56:41.652Z,20.94
2022-11-05T04:58:09.570Z,19.79
2022-11-05T04:59:37.533Z,20.55
2022-11-05T05:01:05.821Z,22.50
2022-11-05T05:02:27.312Z,23.37
2022-11-05T05:04:01.497Z,23.01
2022-11-05T05:05:22.675Z,23.85
2022-11-05T05:06:44.132Z,27.66
2022-11-05T05:08:05.703Z,24.36
2022-11-05T05:09:32.702Z,23.99
2022-11-05T05:10:54.022Z,25.82
2022-11-05T05:12:15.367Z,25.13
2022-11-05T05:13:36.298Z,20.96
2022-11-05T05:14:57.785Z,26.81
2022-11-05T05:16:21.618Z,17.65
2022-11-05T05:17:43.054Z,20.39
2022-11-05T05:19:04.475Z,28.36
2022-11-05T05:20:25.978Z,28.13
2022-11-05T05:21:47.281Z,23.89
2022-11-05T05:23:09.260Z,28.01
2022-11-05T05:24:31.049Z,17.36
2022-11-05T05:25:52.288Z,22.22
2022-11-05T05:27:13.479Z,23.60
2022-11-05T05:28:35.022Z,25.49
2022-11-05T05:29:56.852Z,24.97
2022-11-05T05:31:18.149Z,24.86
2022-11-05T05:32:40.635Z,23.86
2022-11-05T05:34:01.983Z,19.96
2022-11-05T05:35:23.253Z,22.03
2022-11-05T05:36:45.063Z,23.69
2022-11-05T05:38:06.291Z,26.98
2022-11-05T05:39:27.795Z,21.03
2022-11-05T05:40:49.841Z,19.84
2022-11-05T05:42:12.121Z,22.04
2022-11-05T05:43:33.235Z,24.06
2022-11-05T05:44:54.361Z,23.56
2022-11-05T05:46:17.042Z,23.89
2022-11-05T05:47:38.438Z,21.39
2022-11-05T05:49:00.100Z,21.31
2022-11-05T05:50:21.766Z,16.81
2022-11-05T05:51:42.948Z,23.43
2022-11-05T05:53:04.563Z,21.02
2022-11-05T05:54:31.762Z,20.14
2022-11-05T05:55:49.084Z,23.72
2022-11-05T05:57:10.722Z,22.31
2022-11-05T05:58:34.872Z,21.18
2022-11-05T05:59:56.417Z,22.87
2022-11-05T06:01:19.567Z,23.31
2022-11-05T06:02:41.368Z,28.87
2022-11-05T06:04:02.790Z,24.39
2022-11-05T06:05:24.443Z,23.29
2022-11-05T06:06:45.964Z,22.62
2022-11-05T06:08:07.217Z,24.32
2022-11-05T06:09:28.476Z,29.17
2022-11-05T06:10:51.616Z,20.89
2022-11-05T06:12:13.108Z,23.69
2022-11-05T06:13:35.018Z,18.35
2022-11-05T06:14:56.301Z,18.90
2022-11-05T06:16:17.810Z,16.46
2022-11-05T06:17:43.017Z,19.16
2022-11-05T06:19:05.337Z,19.74
2022-11-05T06:20:28.608Z,17.92
2022-11-05T06:21:50.028Z,18.18
2022-11-05T06:23:12.092Z,18.64
2022-11-05T06:24:33.774Z,16.84
2022-11-05T06:25:54.881Z,21.75
2022-11-05T06:27:16.574Z,17.85
2022-11-05T06:28:38.160Z,15.66
2022-11-05T06:29:59.584Z,16.72
2022-11-05T06:31:20.639Z,17.39
2022-11-05T06:32:42.252Z,19.24
2022-11-05T06:34:03.773Z,17.15
2022-11-05T06:35:25.075Z,17.48
2022-11-05T06:36:46.198Z,17.59
2022-11-05T06:38:07.549Z,18.06
2022-11-05T06:39:29.325Z,17.73
2022-11-05T06:40:50.465Z,18.69
2022-11-05T06:42:18.372Z,17.61
2022-11-05T06:44:56.941Z,18.02
2022-11-05T06:46:20.437Z,19.21
2022-11-05T06:47:41.577Z,16.21
2022-11-05T06:49:03.164Z,19.92
2022-11-05T06:50:25.073Z,18.06
2022-11-05T06:51:47.873Z,22.27
2022-11-05T06:53:09.507Z,18.88
2022-11-05T06:54:31.170Z,18.10
2022-11-05T06:55:55.232Z,17.62
2022-11-05T06:57:17.992Z,19.01
2022-11-05T06:58:39.294Z,21.51
2022-11-05T07:00:07.633Z,21.38
2022-11-05T07:01:27.288Z,24.14
2022-11-05T07:02:48.509Z,20.98
2022-11-05T07:04:11.522Z,22.48
2022-11-05T07:05:33.271Z,21.03
2022-11-05T07:06:55.624Z,23.57
2022-11-05T07:08:17.252Z,23.97
2022-11-05T07:09:38.342Z,19.98
2022-11-05T07:11:00.006Z,24.28
2022-11-05T07:12:21.420Z,23.75
2022-11-05T07:13:43.019Z,29.38
2022-11-05T07:15:05.978Z,20.84
2022-11-05T07:16:27.866Z,24.39
2022-11-05T07:17:49.248Z,23.09
2022-11-05T07:19:11.062Z,29.19
2022-11-05T07:20:34.425Z,26.50
2022-11-05T07:21:55.784Z,25.29
2022-11-05T07:23:17.326Z,28.98
2022-11-05T07:24:38.369Z,25.25
2022-11-05T07:25:59.725Z,26.68
2022-11-05T07:27:20.846Z,27.06
2022-11-05T07:28:41.946Z,23.56
2022-11-05T07:31:18.316Z,20.82
2022-11-05T07:33:37.137Z,22.82
2022-11-05T07:34:58.735Z,24.24
2022-11-05T07:36:19.782Z,20.84
2022-11-05T07:37:44.889Z,27.72
2022-11-05T07:39:06.314Z,26.82
2022-11-05T07:40:28.282Z,24.20
2022-11-05T07:41:51.472Z,24.68
2022-11-05T07:43:13.402Z,29.22
2022-11-05T07:44:34.727Z,25.97
2022-11-05T07:45:56.137Z,24.94
2022-11-05T07:47:17.102Z,21.73
2022-11-05T07:48:38.500Z,25.12
2022-11-05T07:49:59.833Z,24.33
2022-11-05T07:51:21.329Z,21.97
2022-11-05T07:52:42.894Z,25.00
2022-11-05T07:54:04.188Z,22.23
2022-11-05T07:55:25.651Z,24.11
2022-11-05T07:56:47.205Z,22.31
2022-11-05T07:58:09.110Z,22.29
2022-11-05T07:59:30.629Z,25.33
2022-11-05T08:00:52.117Z,24.87
2022-11-05T08:02:13.938Z,24.24
2022-11-05T08:03:37.547Z,26.88
2022-11-05T08:04:58.615Z,24.87
2022-11-05T08:06:20.778Z,23.92
2022-11-05T08:07:42.358Z,23.18
2022-11-05T08:09:04.181Z,26.34
2022-11-05T08:10:27.012Z,36.64
2022-11-05T08:11:49.577Z,25.56
2022-11-05T08:13:12.274Z,27.20
2022-11-05T08:14:33.644Z,28.84
2022-11-05T08:15:58.502Z,26.57
2022-11-05T08:17:19.974Z,25.81
2022-11-05T08:18:41.381Z,29.57
2022-11-05T08:20:04.859Z,29.05
2022-11-05T08:21:28.290Z,34.76
2022-11-05T08:24:10.264Z,27.57
2022-11-05T08:25:31.388Z,32.62
2022-11-05T08:26:52.892Z,25.25
2022-11-05T08:28:14.809Z,28.53
2022-11-05T08:29:36.290Z,25.47
2022-11-05T08:30:57.978Z,26.40
2022-11-05T08:32:19.201Z,28.30
2022-11-05T08:33:41.581Z,24.69
2022-11-05T08:35:03.607Z,19.53
2022-11-05T08:36:24.902Z,34.24
2022-11-05T08:37:46.198Z,30.09
2022-11-05T08:39:08.404Z,34.26
2022-11-05T08:40:31.420Z,31.31
2022-11-05T08:41:52.932Z,27.69
2022-11-05T08:43:14.581Z,26.33
2022-11-05T08:44:35.943Z,27.66
2022-11-05T08:45:59.764Z,27.29
2022-11-05T08:47:20.702Z,24.95
2022-11-05T08:48:42.009Z,24.45
2022-11-05T08:50:06.146Z,24.64
2022-11-05T08:51:27.181Z,26.74
2022-11-05T08:52:48.226Z,26.48
2022-11-05T08:54:10.349Z,24.84
2022-11-05T08:55:31.864Z,22.61
2022-11-05T08:56:53.419Z,28.63
2022-11-05T08:58:15.398Z,23.28
2022-11-05T08:59:37.558Z,27.75
2022-11-05T09:01:04.474Z,24.72
2022-11-05T09:02:22.119Z,28.44
2022-11-05T09:03:43.720Z,20.93
2022-11-05T09:05:06.253Z,25.78
2022-11-05T09:06:27.671Z,26.99
2022-11-05T09:07:48.911Z,21.24
2022-11-05T09:09:12.197Z,18.73
2022-11-05T09:10:34.131Z,20.14
2022-11-05T09:12:11.607Z,19.05
2022-11-05T09:13:20.097Z,20.30
2022-11-05T09:16:02.500Z,18.58
2022-11-05T09:17:23.851Z,21.99
2022-11-05T09:18:45.892Z,18.37
2022-11-05T09:20:08.374Z,20.27
2022-11-05T09:21:30.326Z,21.51
2022-11-05T09:22:52.253Z,20.98
2022-11-05T09:24:13.320Z,25.72
2022-11-05T09:25:35.264Z,25.73
2022-11-05T09:26:56.234Z,22.21
2022-11-05T09:28:19.458Z,18.72
2022-11-05T09:29:41.588Z,20.88
2022-11-05T09:31:07.295Z,19.72
2022-11-05T09:32:30.385Z,22.96
2022-11-05T09:33:51.759Z,20.14
2022-11-05T09:35:12.769Z,17.61
2022-11-05T09:36:33.798Z,19.08
2022-11-05T09:38:00.773Z,21.37
2022-11-05T09:39:19.810Z,33.49
2022-11-05T09:41:05.213Z,32.34
2022-11-05T09:42:33.115Z,22.21
2022-11-05T09:44:15.157Z,22.17
2022-11-05T09:45:36.132Z,20.30
2022-11-05T09:46:59.665Z,19.59
2022-11-05T09:48:22.679Z,21.94
2022-11-05T09:51:06.114Z,16.82
2022-11-05T09:52:28.871Z,17.64
2022-11-05T09:53:50.215Z,27.21
2022-11-05T09:55:29.826Z,16.59
2022-11-05T09:56:52.258Z,18.78
2022-11-05T09:59:46.605Z,19.11
2022-11-05T10:02:27.868Z,14.44
2022-11-05T10:03:51.076Z,21.87
2022-11-05T10:05:12.501Z,21.62
2022-11-05T10:06:33.863Z,17.48
2022-11-05T10:08:00.895Z,19.29
2022-11-05T10:09:40.112Z,17.72
2022-11-05T10:11:03.101Z,17.57
2022-11-05T10:12:42.952Z,18.74
2022-11-05T10:14:18.521Z,19.01
2022-11-05T10:15:43.354Z,17.48
2022-11-05T10:18:37.824Z,17.81
2022-11-05T10:20:16.668Z,16.96
2022-11-05T10:22:05.105Z,17.92
2022-11-05T10:24:22.547Z,29.19
2022-11-05T10:26:10.277Z,26.04
2022-11-05T10:27:36.108Z,22.82
2022-11-05T10:28:57.605Z,20.74
2022-11-05T10:30:32.561Z,20.77
2022-11-05T10:31:53.821Z,33.53
2022-11-05T10:33:18.022Z,21.26
2022-11-05T10:34:40.572Z,22.41
2022-11-05T10:37:25.727Z,18.03
2022-11-05T10:38:47.513Z,18.51
2022-11-05T10:40:39.975Z,19.92
2022-11-05T10:43:46.499Z,20.86
2022-11-05T10:45:19.666Z,19.58
2022-11-05T10:46:57.229Z,16.42
2022-11-05T10:48:43.829Z,22.03
2022-11-05T10:50:12.368Z,19.81
2022-11-05T10:51:38.015Z,18.60
2022-11-05T10:53:02.726Z,18.14
2022-11-05T10:54:28.619Z,18.13
2022-11-05T10:55:56.851Z,18.23
2022-11-05T10:57:39.656Z,20.71
2022-11-05T10:59:12.026Z,20.49
2022-11-05T11:00:46.663Z,19.08
2022-11-05T11:03:47.708Z,19.50
2022-11-05T11:05:14.521Z,24.20
2022-11-05T11:06:37.652Z,21.57
2022-11-05T11:08:21.847Z,31.11
2022-11-05T11:09:52.179Z,35.25
2022-11-05T11:11:31.264Z,24.89
2022-11-05T11:12:55.618Z,24.63
2022-11-05T11:14:23.716Z,31.10
2022-11-05T11:15:45.487Z,23.09
2022-11-05T11:18:57.916Z,23.57
2022-11-05T11:20:32.233Z,22.27
2022-11-05T11:27:39.857Z,22.69
2022-11-05T11:29:32.237Z,16.28
2022-11-05T11:35:46.014Z,18.01
2022-11-05T11:37:19.667Z,19.27
2022-11-05T11:38:41.384Z,19.01
2022-11-05T11:41:37.119Z,25.81
2022-11-05T11:43:00.075Z,26.81
2022-11-05T11:44:26.214Z,19.47
2022-11-05T11:45:49.278Z,18.24
2022-11-05T11:47:16.266Z,21.69
2022-11-05T11:48:39.434Z,18.64
2022-11-05T11:50:00.995Z,18.52
2022-11-05T11:51:31.785Z,27.76
2022-11-05T11:52:53.638Z,21.62
2022-11-05T11:54:19.252Z,18.93
2022-11-05T11:55:59.202Z,18.11
2022-11-05T11:57:22.351Z,17.80
2022-11-05T11:58:48.069Z,17.62
2022-11-05T12:00:10.215Z,22.22
2022-11-05T12:02:05.894Z,18.47
2022-11-05T12:03:35.146Z,20.07
2022-11-05T12:05:15.769Z,19.47
2022-11-05T12:06:49.563Z,17.75
2022-11-05T12:08:24.610Z,19.03
2022-11-05T12:10:05.867Z,19.67
2022-11-05T12:11:31.246Z,24.34
2022-11-05T12:13:11.729Z,22.51
2022-11-05T12:14:56.103Z,22.11
2022-11-05T12:17:51.979Z,22.03
2022-11-05T12:19:25.955Z,21.60
2022-11-05T12:21:00.032Z,23.82
2022-11-05T12:22:44.228Z,21.47
2022-11-05T12:24:38.712Z,19.08
2022-11-05T12:27:44.956Z,19.38
2022-11-05T12:29:36.265Z,19.36
2022-11-05T12:31:33.842Z,15.02
2022-11-05T12:33:24.010Z,18.07
2022-11-05T12:35:07.930Z,16.08
2022-11-05T12:36:46.052Z,19.11
2022-11-05T12:38:17.235Z,17.39
2022-11-05T12:39:48.485Z,16.21
2022-11-05T12:41:19.202Z,16.13
2022-11-05T12:42:47.281Z,19.89
2022-11-05T12:44:22.041Z,18.74
2022-11-05T12:46:07.068Z,19.84
2022-11-05T12:47:43.887Z,22.08
2022-11-05T12:49:17.990Z,17.06
2022-11-05T12:50:43.410Z,19.14
2022-11-05T12:52:08.747Z,22.41
2022-11-05T12:53:45.103Z,25.32
2022-11-05T12:55:10.462Z,27.20
2022-11-05T12:56:46.823Z,23.12
2022-11-05T12:58:17.970Z,20.71
2022-11-05T13:00:03.797Z,21.41
2022-11-05T13:02:54.027Z,24.06
2022-11-05T13:05:41.275Z,27.04
2022-11-05T13:07:06.061Z,21.01
2022-11-05T13:08:43.453Z,22.82
2022-11-05T13:10:27.019Z,22.34
2022-11-05T13:11:54.339Z,19.31
2022-11-05T13:13:25.517Z,24.27
2022-11-05T13:15:04.612Z,21.04
2022-11-05T13:16:47.296Z,24.58
2022-11-05T13:18:14.869Z,29.53
2022-11-05T13:19:43.011Z,24.49
2022-11-05T13:21:07.042Z,27.34
2022-11-05T13:23:01.593Z,23.37
2022-11-05T13:26:24.836Z,25.68
2022-11-05T13:28:06.485Z,26.49
2022-11-05T13:30:54.724Z,23.26
2022-11-05T13:32:32.013Z,26.79
2022-11-05T13:33:54.315Z,30.31
2022-11-05T13:35:27.262Z,25.53
2022-11-05T13:36:59.717Z,20.95
2022-11-05T13:38:23.542Z,24.96
2022-11-05T13:39:55.803Z,25.73
2022-11-05T13:41:48.988Z,17.88
2022-11-05T13:43:40.185Z,23.71
2022-11-05T13:47:10.302Z,18.79
2022-11-05T13:48:35.184Z,20.99
2022-11-05T13:50:19.678Z,23.21
2022-11-05T13:51:47.427Z,23.69
2022-11-05T13:53:24.671Z,24.88
2022-11-05T13:54:58.677Z,25.49
2022-11-05T13:56:26.676Z,26.14
2022-11-05T13:58:24.814Z,23.01
2022-11-05T14:00:05.335Z,26.48
2022-11-05T14:01:36.582Z,24.58
2022-11-05T14:03:02.872Z,28.84
2022-11-05T14:04:30.192Z,23.58
2022-11-05T14:05:55.267Z,24.28
2022-11-05T14:07:21.985Z,24.48
2022-11-05T14:08:44.622Z,23.21
2022-11-05T14:11:35.429Z,25.44
2022-11-05T14:12:57.483Z,23.68
2022-11-05T14:14:20.956Z,28.19
2022-11-05T14:16:04.149Z,27.79
2022-11-05T14:17:45.525Z,22.73
2022-11-05T14:31:54.463Z,22.69
2022-11-05T14:37:32.601Z,22.60
2022-11-05T14:39:00.051Z,24.83
2022-11-05T14:40:39.680Z,26.11
2022-11-05T14:42:07.324Z,21.81
2022-11-05T14:43:33.457Z,28.53
2022-11-05T14:46:13.617Z,19.51
2022-11-05T14:48:52.752Z,27.10
2022-11-05T14:50:39.246Z,24.39
2022-11-05T14:52:06.134Z,26.66
2022-11-05T14:53:35.909Z,24.11
2022-11-05T14:54:56.913Z,25.76
2022-11-05T14:56:18.026Z,25.60
2022-11-05T14:57:55.230Z,28.73
2022-11-05T14:59:28.777Z,25.89
2022-11-05T15:00:49.887Z,25.86
2022-11-05T15:02:14.006Z,28.15
2022-11-05T15:03:46.264Z,26.04
2022-11-05T15:07:04.003Z,28.95
2022-11-05T15:08:39.739Z,24.82
2022-11-05T15:10:10.824Z,32.17
2022-11-05T15:12:58.356Z,27.75
2022-11-05T15:14:34.033Z,26.75
2022-11-05T15:15:56.508Z,25.62
2022-11-05T15:17:22.847Z,26.56
2022-11-05T15:18:45.152Z,27.77
2022-11-05T15:20:17.937Z,25.51
2022-11-05T15:21:41.138Z,17.97
2022-11-05T15:23:03.675Z,22.90
2022-11-05T15:24:25.417Z,23.17
2022-11-05T15:25:56.186Z,26.73
2022-11-05T15:27:36.795Z,24.48
2022-11-05T15:28:57.737Z,28.79
2022-11-05T15:30:21.710Z,23.74
2022-11-05T15:31:45.604Z,28.84
2022-11-05T15:33:08.354Z,27.93
2022-11-05T15:34:31.503Z,28.23
2022-11-05T15:35:52.711Z,23.37
2022-11-05T15:37:17.690Z,25.98
2022-11-05T15:38:39.987Z,27.28
2022-11-05T15:40:03.839Z,25.17
2022-11-05T15:41:29.869Z,32.03
2022-11-05T15:43:10.239Z,26.36
2022-11-05T15:44:33.709Z,31.99
2022-11-05T15:47:24.641Z,27.94
2022-11-05T15:50:03.258Z,26.24
2022-11-05T15:51:25.436Z,28.91
2022-11-05T15:52:49.718Z,24.48
2022-11-05T15:55:26.483Z,27.34
2022-11-05T15:56:50.520Z,27.25
2022-11-05T15:58:12.025Z,26.81
2022-11-05T15:59:33.234Z,30.69
2022-11-05T16:00:54.569Z,29.11
2022-11-05T16:03:34.431Z,29.12
2022-11-05T16:04:56.401Z,34.81
2022-11-05T16:06:18.576Z,28.78
2022-11-05T16:07:44.444Z,38.23
2022-11-05T16:09:05.488Z,51.97
2022-11-05T16:10:33.386Z,36.58
2022-11-05T16:12:16.471Z,28.53
2022-11-05T16:13:39.519Z,30.49
2022-11-05T16:15:13.314Z,31.31
2022-11-05T16:16:34.726Z,25.21
2022-11-05T16:19:40.361Z,28.76
2022-11-05T16:22:16.629Z,27.44
2022-11-05T16:25:24.238Z,35.21
2022-11-05T16:27:57.604Z,31.09
2022-11-05T16:29:34.319Z,26.14
2022-11-05T16:31:03.073Z,30.71
2022-11-05T16:32:30.291Z,30.78
2022-11-05T16:33:49.385Z,28.79
2022-11-05T16:36:48.987Z,24.20
2022-11-05T16:38:11.723Z,26.94
2022-11-05T16:40:54.517Z,26.68
2022-11-05T16:42:38.392Z,25.36
2022-11-05T16:44:01.344Z,38.26
2022-11-05T16:45:23.711Z,26.33
2022-11-05T16:46:46.982Z,29.47
2022-11-05T16:48:11.174Z,34.37
2022-11-05T16:49:32.682Z,41.62
2022-11-05T16:50:54.160Z,29.16
2022-11-05T16:52:17.606Z,38.06
2022-11-05T16:53:38.816Z,36.24
2022-11-05T16:55:00.393Z,26.11
2022-11-05T16:56:22.560Z,28.72
2022-11-05T16:57:46.352Z,23.47
2022-11-05T16:59:10.504Z,31.60
2022-11-05T17:00:32.142Z,25.51
2022-11-05T17:01:55.973Z,36.37
2022-11-05T17:03:17.130Z,27.52
2022-11-05T17:04:38.358Z,26.62
2022-11-05T17:05:59.374Z,28.83
2022-11-05T17:07:20.955Z,30.86
2022-11-05T17:08:42.207Z,34.42
2022-11-05T17:10:03.988Z,26.22
2022-11-05T17:11:25.489Z,20.56
2022-11-05T17:12:46.734Z,29.20
2022-11-05T17:14:13.996Z,21.66
2022-11-05T17:15:35.384Z,25.42
2022-11-05T17:16:59.316Z,26.54
2022-11-05T17:18:21.214Z,25.23
2022-11-05T17:19:42.870Z,16.31
2022-11-05T17:21:06.749Z,19.83
2022-11-05T17:22:28.149Z,24.14
2022-11-05T17:35:32.790Z,21.60
2022-11-05T17:38:03.787Z,20.05
2022-11-05T17:39:31.206Z,18.83
2022-11-05T17:40:48.788Z,19.16
2022-11-05T17:42:09.952Z,18.12
2022-11-05T17:43:31.511Z,19.54
2022-11-05T17:44:54.492Z,21.46
2022-11-05T17:46:15.898Z,23.57
2022-11-05T17:47:38.717Z,19.21
2022-11-05T17:49:00.265Z,20.59
2022-11-05T17:50:22.080Z,22.37
2022-11-05T17:51:43.357Z,23.08
2022-11-05T17:53:04.653Z,20.43
2022-11-05T17:54:26.283Z,21.14
2022-11-05T17:55:47.990Z,20.04
2022-11-05T17:57:09.534Z,22.90
2022-11-05T17:58:32.886Z,24.03
2022-11-05T17:59:54.156Z,20.06
2022-11-05T18:02:43.426Z,23.16
2022-11-05T18:04:09.058Z,23.34
2022-11-05T18:05:30.189Z,23.19
2022-11-05T18:06:51.760Z,17.26
2022-11-05T18:08:13.092Z,21.66
2022-11-05T18:09:34.148Z,20.72
2022-11-05T18:10:57.963Z,21.51
2022-11-05T18:12:19.296Z,21.25
2022-11-05T18:13:40.542Z,25.54
2022-11-05T18:15:03.977Z,24.01
2022-11-05T18:16:27.093Z,23.65
2022-11-05T18:17:48.324Z,23.32
2022-11-05T18:19:10.907Z,20.96
2022-11-05T18:20:32.530Z,20.57
2022-11-05T18:21:54.668Z,16.89
2022-11-05T18:23:16.092Z,19.48
2022-11-05T18:24:37.529Z,19.83
2022-11-05T18:25:59.012Z,21.32
2022-11-05T18:27:20.174Z,17.55
2022-11-05T18:28:43.858Z,21.89
2022-11-05T18:30:08.411Z,22.41
2022-11-05T18:31:29.680Z,20.23
2022-11-05T18:32:51.165Z,20.63
2022-11-05T18:34:13.445Z,20.93
2022-11-05T18:35:39.899Z,22.36
2022-11-05T18:37:02.962Z,19.69
2022-11-05T18:38:24.415Z,19.82
2022-11-05T18:39:47.986Z,19.47
2022-11-05T18:41:09.675Z,21.63
2022-11-05T18:42:31.970Z,20.30
2022-11-05T18:45:15.581Z,21.26
2022-11-05T18:46:57.105Z,20.06
2022-11-05T18:48:01.087Z,19.72
2022-11-05T18:49:22.599Z,21.14
2022-11-05T18:50:44.269Z,20.41
2022-11-05T18:52:05.672Z,23.48
2022-11-05T18:53:28.756Z,18.98
2022-11-05T18:54:50.786Z,17.80
2022-11-05T18:56:14.137Z,19.90
2022-11-05T18:57:38.569Z,22.13
2022-11-05T18:59:30.096Z,19.09
2022-11-05T19:01:44.097Z,19.59
2022-11-05T19:03:07.325Z,17.06
2022-11-05T19:04:28.871Z,19.86
2022-11-05T19:05:50.198Z,17.42
2022-11-05T19:07:11.564Z,20.34
2022-11-05T19:08:33.055Z,18.22
2022-11-05T19:09:54.945Z,19.53
2022-11-05T19:12:29.293Z,16.09
2022-11-05T19:13:51.173Z,19.43
2022-11-05T19:15:12.923Z,17.95
2022-11-05T19:16:34.653Z,18.84
2022-11-05T19:17:55.759Z,20.59
2022-11-05T19:19:16.879Z,17.89
2022-11-05T19:20:38.204Z,17.74
2022-11-05T19:22:01.248Z,20.05
2022-11-05T19:23:22.598Z,19.26
2022-11-05T19:24:43.704Z,16.89
2022-11-05T19:26:06.258Z,18.23
2022-11-05T19:27:27.672Z,12.40
2022-11-05T19:28:49.012Z,16.59
2022-11-05T19:30:11.074Z,17.46
2022-11-05T19:31:32.656Z,16.74
2022-11-05T19:32:54.455Z,19.18
2022-11-05T19:34:15.523Z,16.77
2022-11-05T19:35:41.645Z,16.66
2022-11-05T19:37:02.969Z,18.49
2022-11-05T19:38:25.030Z,18.06
2022-11-05T19:39:45.986Z,17.91
2022-11-05T19:41:09.478Z,19.83
2022-11-05T19:42:30.521Z,18.84
2022-11-05T19:43:55.728Z,18.12
2022-11-05T19:45:42.889Z,19.86
2022-11-05T19:46:40.813Z,18.53
2022-11-05T19:48:03.377Z,18.56
2022-11-05T19:49:24.575Z,13.63
2022-11-05T19:50:46.119Z,18.52
2022-11-05T19:52:07.263Z,19.61
2022-11-05T19:53:29.897Z,17.80
2022-11-05T19:54:53.459Z,15.79
2022-11-05T19:56:17.896Z,16.06
2022-11-05T19:57:40.723Z,16.63
2022-11-05T19:59:02.605Z,18.17
2022-11-05T20:00:24.194Z,15.10
2022-11-05T20:01:45.757Z,16.47
2022-11-05T20:03:07.348Z,17.52
2022-11-05T20:04:28.858Z,19.59
2022-11-05T20:05:50.737Z,18.47
2022-11-05T20:07:12.305Z,20.14
2022-11-05T20:08:43.293Z,19.29
2022-11-05T20:09:56.813Z,14.47
2022-11-05T20:11:17.825Z,19.76
2022-11-05T20:12:39.013Z,17.76
2022-11-05T20:14:02.811Z,16.93
2022-11-05T20:15:23.875Z,16.28
2022-11-05T20:16:45.311Z,19.08
2022-11-05T20:18:07.008Z,15.54
2022-11-05T20:19:28.646Z,16.07
2022-11-05T20:21:07.283Z,14.21
2022-11-05T20:22:28.629Z,15.89